Amargosa Valley, Nevada Weather observations

Data are for observation ending at time listed.
 Day   Time    Ave.   Ave.  Ave.  Vector   Max.   Stn.    Total    Solar   Ave.  
  of    of     Air    Rel.  Wind   Wind    Wind   Baro.  Precip.   Rad.    Soil  
Year   Day     Temp.  Hum.  Speed  Dir.    Gust   Pres.                    Temp. 
2015   (PST)    F      %     mph   deg.    mph     mb.     in.     W/m2     F   
------------------------------------------------------------------------------
 216    0:50   81.9    16    7.3   144     13.2   925.3    0.00       0    93.5
 216    1:00   83.1    15    8.9   154     12.8   925.4    0.00       0    93.4
 216    1:10   81.9    16    7.3   129     10.0   925.4    0.00       0    93.3
 216    1:20   80.1    16    7.1   125     10.6   925.4    0.00       0    93.2
 216    1:30   79.1    17    6.6   113      8.3   925.4    0.00       0    93.2
 216    1:40   78.4    18    7.4   119      9.9   925.5    0.00       0    93.1
 216    1:50   78.7    18    6.7   139     10.1   925.6    0.00       0    93.0
 216    2:00   78.2    18    6.5   121      8.3   925.6    0.00       0    92.9
 216    2:10   77.8    19    6.5   124      9.3   925.6    0.00       0    92.8
 216    2:20   77.0    19    6.8   118      8.4   925.6    0.00       0    92.7
 216    2:30   77.1    19    7.1   120      9.1   925.6    0.00       0    92.6
 216    2:40   77.9    18    8.2   120     11.2   925.7    0.00       0    92.6
 216    2:50   78.6    19    8.1   126     11.5   925.8    0.00       0    92.5
 216    3:00   79.2    19    8.6   128     11.5   925.8    0.00       0    92.4
 216    3:10   79.1    20    8.1   134     11.2   925.9    0.00       0    92.3
 216    3:20   78.6    21    6.2   137      9.8   925.9    0.00       0    92.2
 216    3:30   77.2    21    5.7   130      7.7   925.9    0.00       0    92.1
 216    3:40   76.6    22    6.4   122      8.9   925.9    0.00       0    92.0
 216    3:50   76.7    23    6.9   113      8.9   926.0    0.00       0    91.9
 216    4:00   77.3    23    6.7   124      9.6   926.2    0.00       0    91.8
 216    4:10   76.6    24    5.1   117      7.3   926.3    0.00       0    91.7
 216    4:20   75.7    25    5.4   110      7.2   926.4    0.00       0    91.7
 216    4:30   75.8    25    6.1   105      7.8   926.5    0.00       0    91.6
 216    4:40   76.3    24    6.5   112      8.4   926.6    0.00       0    91.5
 216    4:50   76.2    24    6.3   113      7.9   926.6    0.00       1    91.4
 216    5:00   76.2    24    5.5   123      7.0   926.7    0.00       5    91.3
 216    5:10   75.8    25    5.5   128      7.9   926.9    0.00       8    91.2
 216    5:20   75.4    24    4.4   128      7.2   926.9    0.00      13    91.1
 216    5:30   74.9    25    3.5   135      5.2   927.0    0.00      40    91.0
 216    5:40   76.0    25    4.7   117      6.0   927.0    0.00      86    90.9
 216    5:50   78.0    24    4.5   113      6.4   927.2    0.00     122    90.8
 216    6:00   79.2    23    4.4   113      6.7   927.4    0.00     153    90.7
 216    6:10   79.6    23    6.0    94      7.6   927.6    0.00     183    90.6
 216    6:20   80.7    22    5.7   113      8.4   927.8    0.00     214    90.4
 216    6:30   81.7    22    4.3   123      6.5   927.9    0.00     247    90.3
 216    6:40   82.7    22    5.3   131      7.7   928.1    0.00     280    90.2
 216    6:50   83.2    21    5.8   114      7.1   928.2    0.00     314    90.2
 216    7:00   84.0    20    5.6   121      8.0   928.3    0.00     347    90.1
 216    7:10   85.0    20    5.9   125      8.7   928.4    0.00     381    90.0
 216    7:20   85.3    20    6.1   149      8.8   928.5    0.00     413    89.9
 216    7:30   85.7    20    5.8   155      8.4   928.5    0.00     446    89.9
 216    7:40   85.9    20    5.7   161      8.6   928.5    0.00     478    89.8
 216    7:50   86.3    20    6.3   168     10.2   928.6    0.00     510    89.7
 216    8:00   86.6    19    6.1   186      9.9   928.6    0.00     540    89.7
 216    8:10   87.2    19    4.8   177      9.6   928.6    0.00     570    89.6
 216    8:20   87.9    18    6.6   186     12.3   928.6    0.00     598    89.6
 216    8:30   88.4    18    6.4   169     11.7   928.7    0.00     627    89.6
 216    8:40   89.1    18    7.9   169     12.1   928.5    0.00     654    89.5
 216    8:50   90.1    17    9.3   190     15.3   928.5    0.00     680    89.5
 216    9:00   90.8    16   10.0   184     16.0   928.6    0.00     707    89.5
 216    9:10   91.7    16    9.8   170     16.9   928.7    0.00     731    89.5
 216    9:20   91.9    15   11.7   176     18.7   928.8    0.00     755    89.5
 216    9:30   91.9    15   11.5   174     18.2   928.9    0.00     778    89.5
 216    9:40   92.2    15   10.6   173     17.0   928.7    0.00     797    89.5
 216    9:50   93.1    14   10.4   151     16.8   928.6    0.00     818    89.5
 216   10:00   93.4    14   10.6   150     15.4   928.6    0.00     836    89.6
 216   10:10   93.5    14   10.7   171     16.4   928.6    0.00     855    89.6
 216   10:20   94.0    13   12.4   174     19.5   928.6    0.00     877    89.7
 216   10:30   94.4    13   11.7   186     17.7   928.7    0.00     882    89.7
 216   10:40   95.1    12   12.4   185     19.6   928.6    0.00     906    89.8
 216   10:50   95.0    12   11.2   185     21.5   928.6    0.00     880    89.8
 216   11:00   95.9    11   11.5   188     18.5   928.5    0.00     929    89.9
 216   11:10   95.6    11   11.1   188     18.0   928.5    0.00     917    90.0
 216   11:20   96.1    11   11.9   188     19.8   928.4    0.00     856    90.1
 216   11:30   96.9    10   11.2   180     18.6   928.3    0.00     788    90.1
 216   11:40   96.7    10   11.1   186     19.1   928.2    0.00     859    90.2
 216   11:50   97.8    11   10.6   174     18.8   928.1    0.00     964    90.3
 216   12:00   98.2    10   12.1   183     19.2   928.0    0.00     829    90.5
 216   12:10   97.1    11   13.3   174     23.4   928.0    0.00     551    90.5
 216   12:20   97.5    10   13.4   184     19.6   927.9    0.00     603    90.7
 216   12:30   97.2    11   13.7   172     20.3   927.9    0.00     640    90.8
 216   12:40   97.7    11   12.5   156     21.3   927.8    0.00     684    91.0
 216   12:50   98.2    10   16.2   150     25.4   927.7    0.00     752    91.3
 216   13:00   98.3    10   15.0   170     26.7   927.6    0.00     564    91.4
 216   13:10   98.4    10   14.6   156     21.7   927.5    0.00     508    91.5
 216   13:20   98.7    10   14.1   164     23.2   927.3    0.00     587    91.7
 216   13:30   98.4    10   13.1   160     20.0   927.2    0.00     458    91.9
 216   13:40   98.8    10   11.6   167     18.3   927.0    0.00     445    92.1
 216   13:50   99.0    10   14.4   173     22.1   927.0    0.00     447    92.3
 216   14:00   99.7    10   15.9   175     23.2   926.8    0.00     579    92.5
 216   14:10   99.5    10   13.1   185     20.5   926.7    0.00     407    92.7
 216   14:20   99.5    10   16.1   183     22.6   926.6    0.00     409    92.8
 216   14:30   99.5    10   16.6   171     24.5   926.5    0.00     444    92.9
 216   14:40   99.7    10   15.2   172     21.8   926.3    0.00     509    93.1
 216   14:50  100.2    10   15.7   176     23.0   926.3    0.00     491    93.2
 216   15:00  100.1    10   14.1   178     22.8   926.2    0.00     523    93.3
 216   15:10  100.6     9   15.2   183     25.9   926.1    0.00     344    93.5
 216   15:20  100.3    10   15.5   177     21.8   926.2    0.00     278    93.6
 216   15:30  100.2    10   11.1   180     18.7   926.1    0.00     192    93.7
 216   15:40  100.7    10   14.1   181     23.1   926.0    0.00     215    93.8
 216   15:50  100.4    10   13.0   182     19.6   926.0    0.00     211    93.9
 216   16:00  100.5    10   13.6   161     19.0   926.0    0.00     153    94.0
 216   16:10  100.3    10   13.6   158     20.3   925.8    0.00     128    94.2
 216   16:20  101.0    10   13.8   167     20.2   925.6    0.00     116    94.3
 216   16:30  100.9    10    8.4   211     14.7   925.4    0.00      77    94.4
 216   16:40  100.9    10    9.3   218     16.7   925.3    0.00      64    94.4
 216   16:50  100.8    10    9.8   201     18.3   925.3    0.00      76    94.5
 216   17:00  100.7    10    8.9   214     14.4   925.3    0.00      77    94.6
 216   17:10  100.7    10   13.3   198     22.8   925.3    0.00      52    94.6
 216   17:20  100.5    10   10.2   203     15.9   925.2    0.00      41    94.7
 216   17:30  100.5    11    9.7   197     16.7   925.1    0.00      42    94.7
 216   17:40  100.4    11   12.0   193     19.6   925.1    0.00      33    94.7
 216   17:50  100.2    11   11.3   192     15.6   925.0    0.00      52    94.8
 216   18:00   99.9    11   10.7   195     16.8   924.9    0.00      39    94.8
 216   18:10   99.2    11   10.5   202     16.0   924.9    0.00      17    94.9
 216   18:20   98.9    11    8.7   201     12.5   925.0    0.00      16    94.9
 216   18:30   98.6    11   10.7   200     16.4   924.9    0.00      15    94.9
 216   18:40   98.2    11   11.6   196     17.0   924.9    0.00      11    94.9
 216   18:50   97.4    12    9.6   195     15.0   924.9    0.00       5    95.0
 216   19:00   97.1    12   11.3   196     15.1   924.9    0.00       2    95.0
 216   19:10   96.6    12   10.6   201     14.5   924.9    0.00       1    95.0
 216   19:20   96.2    12   11.5   198     15.6   924.9    0.00       0    95.0
 216   19:30   95.9    12   11.9   198     17.1   924.9    0.00       0    95.0
 216   19:40   95.8    12   13.1   201     18.5   925.0    0.00       0    95.0
 216   19:50   95.3    13   12.2   200     17.5   925.1    0.00       0    95.0
 216   20:00   94.3    13   11.8   198     18.2   925.3    0.00       0    95.0
 216   20:10   93.9    13   10.5   195     16.1   925.5    0.00       0    95.0
 216   20:20   92.8    13    9.2   196     13.3   925.7    0.00       0    94.9
 216   20:30   92.2    13    8.7   196     13.1   925.8    0.00       0    94.9
 216   20:40   91.3    14    7.9   188     10.7   925.7    0.00       0    94.9
 216   20:50   91.2    14    7.5   200     11.5   925.6    0.00       0    94.9
 216   21:00   91.0    14    6.8   203     10.1   925.6    0.00       0    94.8
 216   21:10   90.4    14    5.6   192      7.8   925.6    0.00       0    94.8
 216   21:20   88.9    15    5.6   162      8.0   925.5    0.00       0    94.7
 216   21:30   88.7    15    9.1   166     15.9   925.4    0.00       0    94.7
 216   21:40   90.4    14   12.6   181     16.9   925.4    0.00       0    94.6
 216   21:50   88.7    16   10.5   153     16.5   925.6    0.00       0    94.6
 216   22:00   87.5    17    8.5   149     12.5   925.6    0.00       0    94.6
 216   22:10   87.2    17    9.2   156     13.5   925.6    0.00       0    94.5
 216   22:20   87.6    17    9.3   150     14.8   925.7    0.00       0    94.4
 216   22:30   87.4    17   11.8   169     20.5   925.9    0.00       0    94.4
 216   22:40   87.9    17   14.6   183     20.2   925.9    0.00       0    94.3
 216   22:50   88.1    17   16.3   185     23.2   925.9    0.00       0    94.3
 216   23:00   88.5    17   17.2   182     22.9   925.9    0.00       0    94.2
 216   23:10   88.4    17   17.7   176     23.2   926.0    0.00       0    94.1
 216   23:20   88.5    17   15.5   178     23.9   926.1    0.00       0    94.1
 216   23:30   88.0    17   14.6   169     22.1   926.1    0.00       0    94.0
 216   23:40   87.5    18   14.6   157     21.4   926.2    0.00       0    93.9
 216   23:50   87.9    17   15.5   158     20.8   926.2    0.00       0    93.9
 217    0:00   88.2    17   16.0   161     20.8   926.3    0.00       0    93.8
 217    0:10   87.7    18   14.7   162     20.8   926.3    0.00       0    93.7
 217    0:20   87.3    18   13.1   156     20.6   926.3    0.00       0    93.7
 217    0:30   87.1    19   14.9   160     21.9   926.3    0.00       0    93.6
 217    0:40   86.8    19   16.2   164     23.4   926.2    0.00       0    93.5

Return to Amargosa Valley, Nevada graphs page.


Western Regional Climate Center,wrcc@dri.edu